Time;durP1;ratioP1;P1;durP2;ratioP2;P2;SDS_P1;SDS_P2;PMS_P1;PMS_P2;Temp;Humidity;BMP_temperature;BMP_pressure;BME280_temperature;BME280_humidity;BME280_pressure;Samples;Min_cycle;Max_cycle;Signal;HPM_P1;HPM_P2
2021/07/09 00:01:29;;;;;;;16.43;10.87;;;21.60;99.90;;;;;;4435672;32;20484;-61
2021/07/09 00:03:56;;;;;;;14.50;10.90;;;21.60;99.90;;;;;;4440117;32;20222;-60
2021/07/09 00:06:24;;;;;;;15.57;11.27;;;21.60;99.90;;;;;;4438451;32;20551;-60
2021/07/09 00:08:50;;;;;;;16.10;11.27;;;21.70;99.90;;;;;;4439600;32;20556;-60
2021/07/09 00:11:18;;;;;;;16.97;10.27;;;21.70;99.90;;;;;;4429126;32;20196;-60
2021/07/09 00:13:46;;;;;;;15.27;10.90;;;21.70;99.90;;;;;;4425909;32;20188;-60
2021/07/09 00:16:17;;;;;;;15.17;10.17;;;21.80;99.90;;;;;;4425594;32;20187;-60
2021/07/09 00:18:46;;;;;;;14.00;10.03;;;21.80;99.90;;;;;;4426389;32;20139;-60
2021/07/09 00:21:14;;;;;;;13.93;10.67;;;21.90;99.90;;;;;;4425893;32;20139;-60
2021/07/09 00:23:42;;;;;;;12.40;10.03;;;21.80;99.90;;;;;;4425806;32;20146;-60
2021/07/09 00:26:09;;;;;;;15.13;10.33;;;21.80;99.90;;;;;;4424651;32;20139;-61
2021/07/09 00:28:36;;;;;;;15.40;10.73;;;21.80;99.90;;;;;;4424324;32;20139;-60
2021/07/09 00:31:03;;;;;;;14.60;10.50;;;21.80;99.90;;;;;;4425735;32;20520;-60
2021/07/09 00:33:30;;;;;;;14.97;10.50;;;21.80;99.90;;;;;;4425710;32;20146;-60
2021/07/09 00:35:56;;;;;;;11.83;9.90;;;21.80;99.90;;;;;;4433098;32;20207;-60
2021/07/09 00:38:23;;;;;;;13.17;10.43;;;21.80;99.90;;;;;;4426680;32;20282;-60
2021/07/09 00:40:50;;;;;;;15.80;10.07;;;21.80;99.90;;;;;;4425955;32;20166;-61
2021/07/09 00:43:17;;;;;;;14.07;9.90;;;21.90;99.90;;;;;;4425574;32;20235;-61
2021/07/09 00:45:44;;;;;;;13.13;9.70;;;21.90;99.90;;;;;;4425639;32;20139;-61
2021/07/09 00:48:11;;;;;;;15.87;10.03;;;21.90;99.90;;;;;;4425604;32;20181;-60
2021/07/09 00:50:38;;;;;;;13.60;9.87;;;21.80;99.90;;;;;;4425585;32;20131;-61
2021/07/09 00:53:06;;;;;;;15.17;9.67;;;21.80;99.90;;;;;;4425522;32;20162;-61
2021/07/09 00:55:33;;;;;;;12.53;9.90;;;21.80;99.90;;;;;;4425461;32;20177;-61
2021/07/09 00:58:01;;;;;;;14.40;10.17;;;21.80;99.90;;;;;;4425396;32;20375;-62
2021/07/09 01:00:30;;;;;;;12.90;9.57;;;21.80;99.90;;;;;;4425427;32;20127;-61
2021/07/09 01:02:57;;;;;;;13.97;10.17;;;21.90;99.90;;;;;;4425425;32;20217;-60
2021/07/09 01:05:25;;;;;;;13.33;9.80;;;21.90;99.90;;;;;;4425420;32;20500;-60
2021/07/09 01:07:52;;;;;;;13.80;9.57;;;21.80;99.90;;;;;;4425406;32;20272;-73
2021/07/09 01:10:20;;;;;;;17.67;11.13;;;21.80;99.90;;;;;;4426662;32;20177;-68
2021/07/09 01:12:47;;;;;;;15.70;12.93;;;22.00;99.90;;;;;;4430700;32;20169;-67
2021/07/09 01:15:17;;;;;;;16.57;13.17;;;22.00;99.90;;;;;;4425368;32;20189;-67
2021/07/09 01:17:44;;;;;;;18.13;13.17;;;22.20;99.90;;;;;;4425360;32;20182;-67
2021/07/09 01:20:14;;;;;;;18.80;13.20;;;22.20;99.90;;;;;;4423812;32;20210;-67
2021/07/09 01:22:43;;;;;;;19.23;12.33;;;22.40;99.90;;;;;;4423770;32;20523;-67
2021/07/09 01:25:24;;;;;;;17.43;12.53;;;22.70;99.90;;;;;;4424064;32;20155;-67
2021/07/09 01:27:59;;;;;;;15.50;10.97;;;22.80;99.90;;;;;;4425138;32;20142;-67
2021/07/09 01:30:27;;;;;;;14.68;9.80;;;23.00;99.90;;;;;;4425251;32;20161;-67
2021/07/09 01:32:55;;;;;;;16.53;9.77;;;23.00;99.90;;;;;;4425224;32;20219;-67
2021/07/09 01:35:24;;;;;;;12.85;8.85;;;22.90;99.90;;;;;;4423728;32;20161;-67
2021/07/09 01:38:06;;;;;;;11.43;8.50;;;22.90;99.90;;;;;;4425143;32;20169;-67
2021/07/09 01:40:35;;;;;;;11.60;8.77;;;22.80;99.90;;;;;;4432301;32;20200;-66
2021/07/09 01:43:04;;;;;;;13.17;8.80;;;22.80;99.90;;;;;;4425211;32;20126;-67
2021/07/09 01:45:33;;;;;;;11.23;7.77;;;22.80;99.90;;;;;;4423630;32;20487;-67
2021/07/09 01:48:00;;;;;;;10.83;6.80;;;22.70;99.90;;;;;;4424580;32;20446;-66
2021/07/09 01:50:27;;;;;;;10.63;6.77;;;22.60;99.90;;;;;;4425048;32;20180;-66
2021/07/09 01:52:54;;;;;;;9.70;6.70;;;22.60;99.90;;;;;;4425046;32;20211;-67
2021/07/09 01:55:22;;;;;;;8.40;6.70;;;22.50;99.90;;;;;;4423506;32;20154;-66
2021/07/09 01:57:49;;;;;;;10.87;6.27;;;22.40;99.90;;;;;;4425263;32;20139;-66
2021/07/09 02:00:19;;;;;;;7.67;6.17;;;22.40;99.90;;;;;;4424942;32;20135;-66
2021/07/09 02:02:46;;;;;;;8.80;6.37;;;22.30;99.90;;;;;;4425262;32;20130;-66
2021/07/09 02:05:16;;;;;;;9.53;6.40;;;22.20;99.90;;;;;;4422880;32;20135;-66
2021/07/09 02:07:45;;;;;;;8.27;6.63;;;22.30;99.90;;;;;;4425064;32;20135;-66
2021/07/09 02:10:14;;;;;;;9.40;6.53;;;22.20;99.90;;;;;;4423471;32;20191;-66
2021/07/09 02:12:42;;;;;;;10.93;6.30;;;22.20;99.90;;;;;;4423369;32;20205;-66
2021/07/09 02:15:14;;;;;;;9.83;6.93;;;22.20;99.90;;;;;;4423445;32;20146;-67
2021/07/09 02:17:42;;;;;;;11.40;6.90;;;22.20;99.90;;;;;;4425306;32;20154;-66
2021/07/09 02:20:12;;;;;;;9.33;6.40;;;22.10;99.90;;;;;;4423356;32;20460;-66
2021/07/09 02:22:39;;;;;;;9.07;6.20;;;22.10;99.90;;;;;;4423403;32;20135;-66
2021/07/09 02:25:07;;;;;;;10.03;6.63;;;22.10;99.90;;;;;;4423602;32;20155;-66
2021/07/09 02:27:35;;;;;;;10.30;6.40;;;22.00;99.90;;;;;;4423369;32;20514;-66
2021/07/09 02:30:13;;;;;;;9.03;6.10;;;22.00;99.90;;;;;;4423348;32;20139;-66
2021/07/09 02:32:40;;;;;;;10.50;6.90;;;22.00;99.90;;;;;;4425216;32;20135;-67
2021/07/09 02:35:10;;;;;;;8.27;6.60;;;21.90;99.90;;;;;;4424848;32;20154;-66
2021/07/09 02:37:37;;;;;;;9.90;6.70;;;21.90;99.90;;;;;;4423235;32;20192;-66
2021/07/09 02:40:07;;;;;;;11.07;6.50;;;21.90;99.90;;;;;;4426576;32;20530;-66
2021/07/09 02:42:34;;;;;;;10.27;6.63;;;21.80;99.90;;;;;;4426997;32;20130;-66
2021/07/09 02:45:01;;;;;;;9.30;6.50;;;21.80;99.90;;;;;;4425524;32;20151;-66
2021/07/09 02:47:27;;;;;;;8.40;6.27;;;21.80;99.90;;;;;;4427607;32;20131;-66
2021/07/09 02:49:54;;;;;;;10.20;6.47;;;21.70;99.90;;;;;;4426083;32;20182;-67
2021/07/09 02:52:21;;;;;;;9.43;6.63;;;21.70;99.90;;;;;;4427481;32;20188;-67
2021/07/09 02:54:48;;;;;;;10.43;7.03;;;21.70;99.90;;;;;;4426880;32;20150;-67
2021/07/09 02:57:15;;;;;;;13.80;7.13;;;21.70;99.90;;;;;;4427763;32;20231;-67
2021/07/09 02:59:42;;;;;;;10.67;6.87;;;21.60;99.90;;;;;;4425811;32;20500;-67
2021/07/09 03:02:09;;;;;;;10.33;7.33;;;21.50;99.90;;;;;;4427359;32;20138;-66
2021/07/09 03:04:35;;;;;;;11.10;7.13;;;21.60;99.90;;;;;;4427772;32;20185;-66
2021/07/09 03:07:03;;;;;;;11.23;7.60;;;21.50;99.90;;;;;;4425761;32;20495;-67
2021/07/09 03:09:29;;;;;;;10.77;7.50;;;21.50;99.90;;;;;;4425654;32;20131;-66
2021/07/09 03:11:56;;;;;;;10.67;7.23;;;21.50;99.90;;;;;;4427125;32;20142;-66
2021/07/09 03:14:23;;;;;;;9.20;7.50;;;21.50;99.90;;;;;;4427034;32;20383;-66
2021/07/09 03:16:50;;;;;;;10.53;7.43;;;21.50;99.90;;;;;;4427419;32;20139;-66
2021/07/09 03:19:18;;;;;;;10.37;7.90;;;21.50;99.90;;;;;;4425608;32;20139;-67
2021/07/09 03:21:46;;;;;;;9.30;7.67;;;21.60;99.90;;;;;;4425562;32;20184;-67
2021/07/09 03:24:12;;;;;;;8.90;6.97;;;21.60;99.90;;;;;;4426386;32;20200;-67
2021/07/09 03:26:39;;;;;;;11.27;7.67;;;21.60;99.90;;;;;;4427372;32;20159;-66
2021/07/09 03:29:06;;;;;;;10.43;7.27;;;21.60;99.90;;;;;;4430761;32;20150;-67
2021/07/09 03:31:33;;;;;;;12.50;8.10;;;21.60;99.90;;;;;;4428428;32;20199;-67
2021/07/09 03:34:00;;;;;;;12.43;7.73;;;21.60;99.90;;;;;;4425397;32;20135;-67
2021/07/09 03:36:27;;;;;;;11.87;7.97;;;21.70;99.90;;;;;;4425762;32;20197;-67
2021/07/09 03:38:56;;;;;;;13.23;7.87;;;21.70;99.90;;;;;;4425097;32;20147;-66
2021/07/09 03:41:23;;;;;;;11.47;8.03;;;21.70;99.90;;;;;;4425129;32;20138;-66
2021/07/09 03:43:50;;;;;;;11.77;7.93;;;21.80;99.90;;;;;;4426605;32;20139;-66
2021/07/09 03:46:19;;;;;;;9.97;7.50;;;21.70;99.90;;;;;;4426146;32;20161;-66
2021/07/09 03:48:46;;;;;;;12.00;7.73;;;21.80;99.90;;;;;;4425685;32;20134;-66
2021/07/09 03:51:13;;;;;;;13.47;7.90;;;21.80;99.90;;;;;;4426114;32;20138;-67
2021/07/09 03:53:40;;;;;;;11.43;7.37;;;21.90;99.90;;;;;;4425048;32;20181;-66
2021/07/09 03:56:07;;;;;;;9.50;7.90;;;21.90;99.90;;;;;;4434060;32;20143;-66
2021/07/09 03:58:35;;;;;;;10.03;7.53;;;21.90;99.90;;;;;;4427234;32;20142;-66
2021/07/09 04:01:03;;;;;;;9.20;7.07;;;22.00;99.90;;;;;;4425754;32;20154;-66
2021/07/09 04:03:31;;;;;;;11.57;7.77;;;22.00;99.90;;;;;;4426407;32;20169;-66
2021/07/09 04:05:57;;;;;;;10.87;7.70;;;22.10;99.90;;;;;;4424097;32;20225;-67
2021/07/09 04:08:24;;;;;;;9.90;7.37;;;22.20;99.90;;;;;;4424918;32;20165;-67
2021/07/09 04:10:51;;;;;;;9.70;7.43;;;22.20;99.90;;;;;;4424734;32;20181;-67
2021/07/09 04:13:18;;;;;;;11.97;7.70;;;22.30;99.90;;;;;;4423779;32;20192;-67
2021/07/09 04:15:45;;;;;;;12.77;7.93;;;22.40;99.90;;;;;;4423741;32;20175;-67
2021/07/09 04:18:12;;;;;;;10.93;7.40;;;22.50;99.90;;;;;;4424261;32;20147;-67
2021/07/09 04:20:39;;;;;;;10.63;7.37;;;22.50;99.90;;;;;;4424627;32;20161;-68
2021/07/09 04:23:06;;;;;;;10.47;8.20;;;22.50;99.90;;;;;;4425056;32;20147;-66
2021/07/09 04:25:33;;;;;;;12.33;7.90;;;22.60;99.90;;;;;;4424208;32;20159;-66
2021/07/09 04:28:00;;;;;;;12.07;8.33;;;22.60;99.90;;;;;;4424336;32;20187;-66
2021/07/09 04:30:27;;;;;;;14.33;8.63;;;22.60;99.90;;;;;;4424066;32;20170;-66
2021/07/09 04:32:54;;;;;;;11.60;7.83;;;22.70;99.90;;;;;;4425685;32;20134;-66
2021/07/09 04:35:21;;;;;;;13.17;8.30;;;22.80;99.90;;;;;;4425540;32;20135;-64
2021/07/09 04:37:48;;;;;;;9.90;8.07;;;22.90;99.90;;;;;;4425543;32;20154;-65
2021/07/09 04:40:15;;;;;;;10.63;8.10;;;22.90;99.90;;;;;;4425722;32;20184;-65
2021/07/09 04:42:43;;;;;;;12.10;8.10;;;22.90;99.90;;;;;;4424692;32;20185;-63
2021/07/09 04:45:13;;;;;;;12.10;8.47;;;23.00;99.90;;;;;;4424336;32;20196;-62
2021/07/09 04:47:40;;;;;;;13.40;8.32;;;23.10;99.90;;;;;;4425966;32;20173;-63
2021/07/09 04:50:08;;;;;;;13.57;8.27;;;23.20;99.90;;;;;;4425145;32;20424;-63
2021/07/09 04:52:42;;;;;;;16.33;8.75;;;23.20;99.90;;;;;;4424335;32;20161;-62
2021/07/09 04:55:09;;;;;;;13.52;8.13;;;23.30;99.90;;;;;;4425241;32;20139;-62
2021/07/09 04:57:36;;;;;;;10.85;8.20;;;23.40;99.90;;;;;;4424379;32;20492;-62
2021/07/09 05:00:04;;;;;;;12.33;8.80;;;23.50;99.90;;;;;;4424990;32;20168;-63
2021/07/09 05:02:31;;;;;;;11.32;8.23;;;23.60;99.90;;;;;;4424659;32;20131;-62
2021/07/09 05:04:58;;;;;;;10.40;8.00;;;23.70;99.90;;;;;;4425064;32;20135;-62
2021/07/09 05:07:25;;;;;;;12.27;8.53;;;23.80;99.90;;;;;;4424340;32;20167;-62
2021/07/09 05:09:52;;;;;;;11.00;8.00;;;23.90;99.90;;;;;;4423626;32;20177;-62
2021/07/09 05:12:19;;;;;;;14.02;8.13;;;23.90;99.90;;;;;;4425197;32;20446;-63
2021/07/09 05:14:46;;;;;;;11.32;8.25;;;23.90;99.90;;;;;;4424821;32;20167;-61
2021/07/09 05:17:13;;;;;;;11.40;8.02;;;23.80;99.90;;;;;;4425266;32;20127;-61
2021/07/09 05:19:40;;;;;;;13.55;8.60;;;23.80;99.90;;;;;;4423877;32;20139;-62
2021/07/09 05:22:10;;;;;;;12.63;8.30;;;23.80;99.90;;;;;;4425392;32;20131;-62
2021/07/09 05:24:39;;;;;;;11.70;8.13;;;23.80;99.90;;;;;;4423854;32;20597;-63
2021/07/09 05:27:06;;;;;;;14.98;8.70;;;23.80;99.90;;;;;;4425145;32;20171;-63
2021/07/09 05:29:33;;;;;;;10.02;7.70;;;23.90;99.90;;;;;;4424018;32;20138;-63
2021/07/09 05:32:00;;;;;;;11.73;8.30;;;23.90;99.90;;;;;;4424928;32;20147;-63
2021/07/09 05:34:29;;;;;;;11.30;8.35;;;24.00;99.90;;;;;;4425084;32;20143;-63
2021/07/09 05:36:56;;;;;;;12.68;8.27;;;24.00;99.90;;;;;;4425102;32;20182;-62
2021/07/09 05:39:22;;;;;;;12.90;7.95;;;24.10;99.90;;;;;;4433042;32;20219;-62
2021/07/09 05:41:50;;;;;;;10.82;8.45;;;24.20;99.90;;;;;;4425226;32;20421;-62
2021/07/09 05:44:17;;;;;;;10.52;8.35;;;24.20;99.90;;;;;;4425001;32;20189;-62
2021/07/09 05:46:46;;;;;;;11.90;9.30;;;24.40;99.90;;;;;;4422834;32;20166;-63
2021/07/09 05:49:15;;;;;;;13.98;9.20;;;24.40;99.90;;;;;;4423525;32;20139;-62
2021/07/09 05:51:42;;;;;;;13.27;9.70;;;24.50;99.90;;;;;;4425076;32;20453;-63
2021/07/09 05:54:09;;;;;;;17.70;9.20;;;24.60;99.90;;;;;;4424096;32;20181;-63
2021/07/09 05:56:35;;;;;;;12.70;9.63;;;24.70;99.90;;;;;;4424946;32;20186;-63
2021/07/09 05:59:03;;;;;;;11.80;9.85;;;24.80;99.90;;;;;;4424910;32;20139;-62
2021/07/09 06:01:30;;;;;;;13.15;9.70;;;24.80;99.90;;;;;;4424010;32;20545;-62
2021/07/09 06:04:00;;;;;;;15.87;10.00;;;24.90;99.90;;;;;;4425360;32;20139;-62
2021/07/09 06:06:27;;;;;;;16.00;10.60;;;25.00;99.90;;;;;;4424677;32;20199;-63
2021/07/09 06:08:54;;;;;;;11.88;10.50;;;25.00;99.90;;;;;;4423376;32;20213;-62
2021/07/09 06:11:21;;;;;;;14.68;10.60;;;25.10;99.90;;;;;;4424928;32;20143;-63
2021/07/09 06:13:48;;;;;;;11.85;9.82;;;25.20;99.90;;;;;;4425483;32;20139;-63
2021/07/09 06:16:14;;;;;;;11.43;9.57;;;25.30;99.90;;;;;;4428099;32;20165;-63
2021/07/09 06:18:41;;;;;;;13.43;9.77;;;25.40;99.90;;;;;;4426868;32;20213;-63
2021/07/09 06:21:22;;;;;;;12.57;9.18;;;25.50;99.90;;;;;;4428126;32;20383;-62
2021/07/09 06:23:49;;;;;;;13.15;9.20;;;25.60;99.90;;;;;;4427882;32;20140;-62
2021/07/09 06:26:16;;;;;;;14.15;8.65;;;25.60;99.90;;;;;;4426966;32;20199;-62
2021/07/09 06:28:43;;;;;;;12.63;8.68;;;25.70;99.90;;;;;;4427696;32;20229;-60
2021/07/09 06:31:10;;;;;;;10.45;8.32;;;25.60;99.90;;;;;;4427702;32;20131;-61
2021/07/09 06:33:37;;;;;;;10.75;8.55;;;25.60;99.90;;;;;;4427112;32;20409;-61
2021/07/09 06:36:04;;;;;;;12.60;8.48;;;25.70;99.90;;;;;;4427754;32;20488;-61
2021/07/09 06:38:31;;;;;;;10.68;7.93;;;25.70;99.90;;;;;;4427591;32;20211;-61
2021/07/09 06:40:58;;;;;;;10.98;8.30;;;25.80;99.90;;;;;;4427697;32;20209;-61
2021/07/09 06:43:25;;;;;;;13.52;8.43;;;26.00;99.90;;;;;;4427611;32;20139;-61
2021/07/09 06:45:52;;;;;;;10.52;8.38;;;26.10;99.90;;;;;;4428079;32;20188;-61
2021/07/09 06:48:19;;;;;;;12.23;8.50;;;26.10;99.90;;;;;;4427446;32;20131;-61
2021/07/09 06:50:45;;;;;;;10.02;8.45;;;26.30;99.90;;;;;;4427602;32;20166;-61
2021/07/09 06:53:14;;;;;;;16.50;8.60;;;26.40;99.90;;;;;;4425364;32;20135;-61
2021/07/09 06:55:42;;;;;;;14.20;8.73;;;26.40;99.90;;;;;;4427485;32;20136;-61
2021/07/09 06:58:09;;;;;;;11.98;8.40;;;26.40;99.90;;;;;;4425910;32;20146;-62
2021/07/09 07:00:36;;;;;;;11.43;8.27;;;26.30;99.90;;;;;;4432449;32;20224;-61
2021/07/09 07:03:04;;;;;;;11.63;8.38;;;26.50;99.90;;;;;;4440928;32;20177;-61
2021/07/09 07:05:31;;;;;;;13.23;8.95;;;26.50;99.90;;;;;;4439564;32;20163;-61
2021/07/09 07:08:15;;;;;;;15.50;8.82;;;26.50;99.90;;;;;;4439277;32;20196;-61
2021/07/09 07:10:43;;;;;;;14.77;8.90;;;26.60;99.90;;;;;;4440803;32;20146;-63
2021/07/09 07:13:10;;;;;;;11.30;9.07;;;26.80;99.90;;;;;;4440553;32;20177;-61
2021/07/09 07:15:39;;;;;;;12.60;8.90;;;26.90;99.90;;;;;;4440749;32;20147;-61
2021/07/09 07:18:10;;;;;;;12.25;8.77;;;26.80;99.90;;;;;;4442411;32;20180;-61
2021/07/09 07:20:41;;;;;;;12.90;8.68;;;26.80;99.90;;;;;;4441975;32;20159;-63
2021/07/09 07:23:09;;;;;;;16.67;9.27;;;26.80;99.90;;;;;;4442856;32;20165;-64
2021/07/09 07:25:37;;;;;;;11.68;8.50;;;26.80;99.90;;;;;;4439941;32;20178;-62
2021/07/09 07:28:05;;;;;;;12.60;9.00;;;27.00;99.90;;;;;;4442046;32;20139;-62
2021/07/09 07:30:33;;;;;;;9.52;8.40;;;27.10;99.90;;;;;;4442008;32;20158;-62
2021/07/09 07:33:00;;;;;;;11.55;9.13;;;27.20;99.90;;;;;;4442211;32;20513;-63
2021/07/09 07:35:30;;;;;;;14.75;9.25;;;27.30;99.90;;;;;;4441895;32;20138;-63
2021/07/09 07:37:58;;;;;;;11.73;9.30;;;27.20;99.90;;;;;;4440672;32;20161;-63
2021/07/09 07:40:25;;;;;;;14.68;10.27;;;27.30;99.90;;;;;;4442111;32;20173;-63
2021/07/09 07:42:52;;;;;;;11.00;9.32;;;27.30;99.90;;;;;;4441362;32;20412;-63
2021/07/09 07:45:19;;;;;;;13.27;9.93;;;27.40;99.90;;;;;;4440747;32;20127;-63
2021/07/09 07:47:46;;;;;;;16.42;10.45;;;27.30;99.90;;;;;;4440538;32;20160;-63
2021/07/09 07:50:16;;;;;;;13.55;10.00;;;27.30;99.90;;;;;;4440576;32;20135;-63
2021/07/09 07:52:44;;;;;;;12.57;9.93;;;27.10;99.90;;;;;;4442128;32;20146;-63
2021/07/09 07:55:11;;;;;;;14.35;10.07;;;27.40;99.90;;;;;;4441839;32;20160;-63
2021/07/09 07:57:38;;;;;;;13.52;10.13;;;27.60;99.90;;;;;;4441958;32;20183;-63
2021/07/09 08:00:06;;;;;;;14.20;10.25;;;27.70;99.90;;;;;;4441668;32;20541;-64
2021/07/09 08:02:33;;;;;;;12.30;10.63;;;27.90;99.90;;;;;;4441960;32;20131;-64
2021/07/09 08:05:00;;;;;;;14.27;9.93;;;28.40;99.90;;;;;;4442021;32;20349;-63
2021/07/09 08:07:27;;;;;;;12.85;10.55;;;28.60;99.90;;;;;;4441867;32;20193;-62
2021/07/09 08:09:54;;;;;;;11.27;9.90;;;28.60;99.90;;;;;;4441601;32;20165;-63
2021/07/09 08:12:20;;;;;;;12.50;9.15;;;28.80;99.90;;;;;;4441766;32;20205;-65
2021/07/09 08:14:47;;;;;;;12.40;9.80;;;28.90;99.90;;;;;;4441054;32;20463;-64
2021/07/09 08:17:14;;;;;;;12.90;9.85;;;29.20;99.90;;;;;;4441745;32;20131;-64
2021/07/09 08:19:41;;;;;;;12.40;9.85;;;29.40;99.90;;;;;;4440131;32;20199;-64
2021/07/09 08:22:08;;;;;;;13.18;9.23;;;29.70;99.90;;;;;;4441711;32;20131;-64
2021/07/09 08:24:35;;;;;;;13.20;9.93;;;29.90;99.90;;;;;;4440755;32;20158;-64
2021/07/09 08:27:02;;;;;;;12.77;9.88;;;30.00;99.90;;;;;;4441392;32;20135;-65
2021/07/09 08:29:29;;;;;;;14.40;10.02;;;30.00;99.90;;;;;;4441406;32;20165;-64
2021/07/09 08:31:57;;;;;;;11.32;9.68;;;29.90;99.90;;;;;;4440055;32;20223;-65
2021/07/09 08:34:25;;;;;;;14.55;10.57;;;29.90;99.90;;;;;;4440221;32;20214;-65
2021/07/09 08:36:52;;;;;;;14.05;10.63;;;29.60;99.90;;;;;;4441224;32;20134;-64
2021/07/09 08:39:19;;;;;;;15.07;10.15;;;29.60;99.90;;;;;;4441273;32;20143;-64
2021/07/09 08:41:48;;;;;;;11.27;9.27;;;29.70;99.90;;;;;;4441322;32;20171;-65
2021/07/09 08:44:16;;;;;;;11.93;9.52;;;30.00;99.90;;;;;;4440944;32;20166;-63
2021/07/09 08:46:43;;;;;;;13.05;9.60;;;30.30;99.90;;;;;;4440948;32;20126;-64
2021/07/09 08:49:16;;;;;;;11.25;9.48;;;30.60;99.90;;;;;;4440960;32;20143;-63
2021/07/09 08:51:44;;;;;;;13.77;9.40;;;30.80;99.90;;;;;;4441334;32;20131;-65
2021/07/09 08:54:16;;;;;;;12.98;9.68;;;31.20;99.90;;;;;;4439362;32;20412;-65
2021/07/09 08:56:44;;;;;;;12.55;9.30;;;31.60;99.90;;;;;;4441092;32;20214;-65
2021/07/09 08:59:11;;;;;;;12.85;8.70;;;31.90;99.90;;;;;;4440960;32;20185;-68
2021/07/09 09:02:01;;;;;;;12.85;9.23;;;32.20;99.90;;;;;;4440992;32;20147;-64
2021/07/09 09:04:30;;;;;;;12.15;9.05;;;32.40;99.90;;;;;;4439477;32;20146;-64
2021/07/09 09:07:09;;;;;;;10.60;8.75;;;32.80;99.90;;;;;;4440801;32;20165;-64
2021/07/09 09:09:38;;;;;;;10.10;8.90;;;33.20;99.90;;;;;;4440876;32;20166;-64
2021/07/09 09:12:16;;;;;;;9.75;8.77;;;33.50;99.90;;;;;;4439393;32;20422;-66
2021/07/09 09:14:48;;;;;;;11.43;8.50;;;33.70;99.90;;;;;;4440821;32;20161;-66
2021/07/09 09:17:28;;;;;;;12.40;9.48;;;33.90;99.90;;;;;;4439753;32;20134;-66
2021/07/09 09:20:11;;;;;;;11.90;9.38;;;34.00;99.90;;;;;;4439009;32;20143;-64
2021/07/09 09:22:54;;;;;;;10.50;9.07;;;34.10;99.90;;;;;;4440740;32;20135;-65
2021/07/09 09:25:27;;;;;;;12.60;9.50;;;34.00;99.90;;;;;;4439202;32;20163;-64
2021/07/09 09:28:11;;;;;;;9.68;8.63;;;34.10;99.90;;;;;;4440968;32;20229;-65
2021/07/09 09:30:40;;;;;;;14.52;9.27;;;34.30;99.90;;;;;;4439209;32;20126;-66
2021/07/09 09:33:09;;;;;;;9.90;8.88;;;34.40;99.90;;;;;;4440643;32;20394;-67
2021/07/09 09:35:51;;;;;;;12.73;9.18;;;34.50;99.90;;;;;;4438954;32;20147;-65
2021/07/09 09:38:22;;;;;;;13.57;9.45;;;34.60;99.50;;;;;;4440507;32;20214;-64
2021/07/09 09:40:50;;;;;;;16.10;9.70;;;34.70;99.70;;;;;;4440580;32;20173;-64
2021/07/09 09:43:19;;;;;;;13.23;10.07;;;34.70;99.10;;;;;;4440822;32;20229;-66
2021/07/09 09:46:04;;;;;;;11.68;9.68;;;34.50;98.00;;;;;;4440567;32;20170;-64
2021/07/09 09:48:49;;;;;;;11.55;9.80;;;34.20;98.50;;;;;;4438918;32;20146;-66
2021/07/09 09:51:39;;;;;;;11.00;9.88;;;33.60;98.90;;;;;;4439505;32;20470;-65
2021/07/09 09:54:09;;;;;;;12.18;10.13;;;33.50;99.20;;;;;;4439844;32;20304;-64
2021/07/09 09:56:46;;;;;;;11.85;10.15;;;33.60;99.10;;;;;;4440586;32;20153;-64
2021/07/09 09:59:24;;;;;;;12.07;10.77;;;33.40;99.30;;;;;;4440439;32;20193;-64
2021/07/09 10:01:59;;;;;;;12.70;10.15;;;33.20;99.90;;;;;;4439119;32;20134;-64
2021/07/09 10:04:28;;;;;;;14.10;10.80;;;33.10;99.60;;;;;;4440456;32;20196;-65
2021/07/09 10:06:56;;;;;;;14.77;10.43;;;33.30;99.80;;;;;;4438941;32;20237;-65
2021/07/09 10:09:25;;;;;;;12.75;10.32;;;33.50;99.40;;;;;;4440442;32;20156;-64
2021/07/09 10:11:52;;;;;;;12.25;10.15;;;33.70;99.10;;;;;;4439266;32;20383;-65
2021/07/09 10:14:22;;;;;;;12.57;10.15;;;33.60;97.90;;;;;;4440359;32;20450;-65
2021/07/09 10:17:00;;;;;;;11.63;10.25;;;33.60;96.60;;;;;;4439958;32;20222;-69
2021/07/09 10:19:37;;;;;;;14.70;11.20;;;33.10;99.00;;;;;;4440273;32;20181;-69
2021/07/09 10:22:25;;;;;;;13.07;10.55;;;32.80;98.60;;;;;;4438395;32;20138;-69
2021/07/09 10:24:54;;;;;;;13.52;10.98;;;32.90;99.30;;;;;;4438552;32;20217;-67
2021/07/09 10:27:24;;;;;;;17.37;11.63;;;33.30;99.30;;;;;;4439735;32;20264;-69
2021/07/09 10:29:54;;;;;;;14.15;10.30;;;33.50;99.10;;;;;;4440297;32;20130;-68
2021/07/09 10:32:33;;;;;;;13.20;10.68;;;33.70;97.90;;;;;;4438856;32;20372;-68
2021/07/09 10:35:03;;;;;;;16.45;10.77;;;33.70;97.00;;;;;;4440181;32;20452;-68
2021/07/09 10:37:30;;;;;;;13.00;10.65;;;33.60;97.60;;;;;;4439111;32;20143;-68
2021/07/09 10:40:10;;;;;;;13.85;11.12;;;33.60;98.20;;;;;;4438812;32;20182;-68
2021/07/09 10:42:41;;;;;;;12.70;10.57;;;33.60;98.30;;;;;;4438946;32;20174;-65
2021/07/09 10:45:24;;;;;;;12.13;10.82;;;33.80;96.30;;;;;;4440306;32;20143;-64
2021/07/09 10:47:54;;;;;;;12.65;10.57;;;34.30;96.70;;;;;;4440448;32;20505;-65
2021/07/09 10:50:47;;;;;;;14.95;11.90;;;34.70;95.50;;;;;;4440366;32;20438;-64
2021/07/09 10:53:13;;;;;;;14.52;11.43;;;35.00;94.80;;;;;;4440342;32;20131;-66
2021/07/09 10:55:49;;;;;;;18.25;11.27;;;35.10;94.80;;;;;;4438662;32;20147;-66
2021/07/09 10:58:22;;;;;;;13.93;11.02;;;35.30;94.90;;;;;;4440053;32;20134;-65
2021/07/09 11:00:56;;;;;;;15.18;10.32;;;35.60;93.70;;;;;;4440365;32;20188;-66
2021/07/09 11:03:26;;;;;;;20.05;11.88;;;35.80;91.90;;;;;;4443113;32;20205;-66
2021/07/09 11:06:04;;;;;;;15.25;11.48;;;36.10;91.80;;;;;;4441990;32;20138;-69
2021/07/09 11:08:41;;;;;;;11.02;9.65;;;36.60;90.90;;;;;;4442276;32;20127;-66
2021/07/09 11:11:10;;;;;;;19.48;10.35;;;37.00;85.80;;;;;;4442691;32;20230;-65
2021/07/09 11:13:42;;;;;;;16.58;10.73;;;37.30;84.40;;;;;;4442122;32;20431;-66
2021/07/09 11:16:30;;;;;;;11.73;9.23;;;37.70;83.00;;;;;;4442479;32;20162;-66
2021/07/09 11:19:05;;;;;;;17.48;10.63;;;37.90;76.20;;;;;;4441867;32;20661;-66
2021/07/09 11:21:36;;;;;;;13.98;9.75;;;38.50;79.70;;;;;;4442461;32;20355;-66
2021/07/09 11:24:20;;;;;;;10.15;8.80;;;39.00;77.00;;;;;;4441770;32;20170;-67
2021/07/09 11:27:10;;;;;;;14.18;10.00;;;39.40;76.00;;;;;;4441902;32;20194;-66
2021/07/09 11:29:46;;;;;;;14.13;10.25;;;39.90;73.80;;;;;;4441468;32;20158;-66
2021/07/09 11:32:20;;;;;;;13.45;9.80;;;40.10;71.60;;;;;;4442057;32;20176;-67
2021/07/09 11:34:49;;;;;;;12.23;9.48;;;40.10;72.70;;;;;;4440948;32;20229;-66
2021/07/09 11:37:21;;;;;;;10.82;9.32;;;40.00;70.60;;;;;;4431872;32;20155;-67
2021/07/09 11:39:53;;;;;;;78.10;14.70;;;40.20;71.20;;;;;;4441266;32;20173;-64
2021/07/09 11:42:30;;;;;;;38.88;11.15;;;39.50;77.30;;;;;;4442764;32;20276;-64
2021/07/09 11:45:00;;;;;;;85.57;14.65;;;39.10;75.10;;;;;;4442065;32;20158;-64
2021/07/09 11:47:27;;;;;;;32.80;10.43;;;38.80;78.10;;;;;;4442215;32;20204;-64
2021/07/09 11:50:00;;;;;;;36.08;10.73;;;39.20;75.80;;;;;;4442019;32;20536;-65
2021/07/09 11:52:29;;;;;;;43.70;11.73;;;39.20;76.00;;;;;;4442402;32;20264;-66
2021/07/09 11:54:58;;;;;;;15.38;9.68;;;39.10;76.60;;;;;;4442059;32;20334;-65
2021/07/09 11:57:28;;;;;;;19.30;9.82;;;39.40;72.50;;;;;;4441811;32;20139;-63
2021/07/09 12:00:14;;;;;;;33.60;11.02;;;39.70;71.10;;;;;;4441958;32;20435;-65
2021/07/09 12:02:43;;;;;;;12.23;9.63;;;39.40;73.80;;;;;;4441961;32;20475;-65
2021/07/09 12:05:12;;;;;;;14.10;9.38;;;39.60;68.60;;;;;;4441867;32;20142;-65
2021/07/09 12:07:40;;;;;;;13.62;9.80;;;39.70;70.00;;;;;;4440411;32;20222;-65
2021/07/09 12:10:17;;;;;;;21.90;10.82;;;39.30;70.10;;;;;;4441945;32;20226;-65
2021/07/09 12:12:51;;;;;;;28.12;11.00;;;39.10;72.10;;;;;;4441677;32;20142;-70
2021/07/09 12:15:26;;;;;;;12.50;9.20;;;39.00;74.00;;;;;;4451759;32;20158;-63
2021/07/09 12:17:56;;;;;;;10.10;8.98;;;39.10;69.90;;;;;;4442017;32;20142;-64
2021/07/09 12:20:26;;;;;;;10.13;8.48;;;39.80;67.00;;;;;;4440019;32;20178;-60
2021/07/09 12:22:59;;;;;;;9.77;7.75;;;40.30;61.80;;;;;;4441382;32;20191;-62
2021/07/09 12:25:34;;;;;;;7.97;7.18;;;40.60;60.70;;;;;;4439932;32;20182;-62
2021/07/09 12:28:11;;;;;;;8.05;7.25;;;40.80;56.70;;;;;;4440725;32;20442;-61
2021/07/09 12:30:50;;;;;;;8.18;6.80;;;40.80;56.40;;;;;;4439456;32;20220;-60
2021/07/09 12:33:33;;;;;;;8.63;6.85;;;40.70;56.30;;;;;;4439760;32;20201;-61
2021/07/09 12:36:05;;;;;;;7.80;7.00;;;40.40;56.60;;;;;;4439099;32;20178;-62
2021/07/09 12:38:34;;;;;;;8.32;7.15;;;39.80;57.50;;;;;;4437976;32;20158;-60
2021/07/09 12:41:28;;;;;;;8.13;7.30;;;39.50;57.20;;;;;;4438289;32;20234;-62
2021/07/09 12:43:55;;;;;;;8.52;7.40;;;39.20;59.80;;;;;;4439145;32;20161;-61
2021/07/09 12:46:24;;;;;;;10.98;7.82;;;39.30;60.00;;;;;;4441308;32;20172;-61
2021/07/09 12:49:02;;;;;;;9.45;8.18;;;39.60;59.50;;;;;;4441172;32;20138;-61